sensor_id;sensor_type;location;lat;lon;timestamp;P1;durP1;ratioP1;P2;durP2;ratioP2
51438;SDS011;38816;51.142;-0.974;2023-04-24T00:00:22;37.72;;;34.10;;
51438;SDS011;38816;51.142;-0.974;2023-04-24T00:02:48;37.20;;;33.50;;
51438;SDS011;38816;51.142;-0.974;2023-04-24T00:05:14;35.78;;;32.53;;
51438;SDS011;38816;51.142;-0.974;2023-04-24T00:07:40;37.17;;;33.55;;
51438;SDS011;38816;51.142;-0.974;2023-04-24T00:10:06;38.15;;;34.47;;
51438;SDS011;38816;51.142;-0.974;2023-04-24T00:12:33;38.55;;;34.83;;
51438;SDS011;38816;51.142;-0.974;2023-04-24T00:14:58;40.40;;;36.47;;
51438;SDS011;38816;51.142;-0.974;2023-04-24T00:17:23;39.20;;;35.17;;
51438;SDS011;38816;51.142;-0.974;2023-04-24T00:19:49;38.63;;;35.05;;
51438;SDS011;38816;51.142;-0.974;2023-04-24T00:22:23;42.15;;;37.90;;
51438;SDS011;38816;51.142;-0.974;2023-04-24T00:24:50;42.05;;;38.13;;
51438;SDS011;38816;51.142;-0.974;2023-04-24T00:27:15;41.60;;;37.53;;
51438;SDS011;38816;51.142;-0.974;2023-04-24T00:29:41;39.45;;;35.78;;
51438;SDS011;38816;51.142;-0.974;2023-04-24T00:32:06;42.35;;;38.15;;
51438;SDS011;38816;51.142;-0.974;2023-04-24T00:34:31;41.03;;;37.08;;
51438;SDS011;38816;51.142;-0.974;2023-04-24T00:36:57;40.22;;;36.22;;
51438;SDS011;38816;51.142;-0.974;2023-04-24T00:39:23;45.50;;;40.78;;
51438;SDS011;38816;51.142;-0.974;2023-04-24T00:41:48;43.10;;;39.00;;
51438;SDS011;38816;51.142;-0.974;2023-04-24T00:44:14;43.45;;;39.17;;
51438;SDS011;38816;51.142;-0.974;2023-04-24T00:46:40;45.28;;;40.78;;
51438;SDS011;38816;51.142;-0.974;2023-04-24T00:49:06;45.90;;;41.50;;
51438;SDS011;38816;51.142;-0.974;2023-04-24T00:51:31;44.58;;;40.47;;
51438;SDS011;38816;51.142;-0.974;2023-04-24T00:53:58;45.15;;;41.05;;
51438;SDS011;38816;51.142;-0.974;2023-04-24T00:56:23;43.85;;;39.53;;
51438;SDS011;38816;51.142;-0.974;2023-04-24T00:58:49;46.00;;;41.50;;
51438;SDS011;38816;51.142;-0.974;2023-04-24T01:01:14;43.90;;;39.75;;
51438;SDS011;38816;51.142;-0.974;2023-04-24T01:03:40;43.90;;;39.63;;
51438;SDS011;38816;51.142;-0.974;2023-04-24T01:06:06;43.08;;;39.08;;
51438;SDS011;38816;51.142;-0.974;2023-04-24T01:08:31;43.00;;;39.05;;
51438;SDS011;38816;51.142;-0.974;2023-04-24T01:10:58;44.15;;;39.75;;
51438;SDS011;38816;51.142;-0.974;2023-04-24T01:13:24;42.47;;;38.38;;
51438;SDS011;38816;51.142;-0.974;2023-04-24T01:15:50;43.47;;;39.15;;
51438;SDS011;38816;51.142;-0.974;2023-04-24T01:18:15;41.97;;;38.00;;
51438;SDS011;38816;51.142;-0.974;2023-04-24T01:20:41;43.50;;;39.13;;
51438;SDS011;38816;51.142;-0.974;2023-04-24T01:23:09;43.60;;;39.40;;
51438;SDS011;38816;51.142;-0.974;2023-04-24T01:25:35;44.67;;;40.10;;
51438;SDS011;38816;51.142;-0.974;2023-04-24T01:28:02;46.03;;;41.58;;
51438;SDS011;38816;51.142;-0.974;2023-04-24T01:30:28;45.15;;;40.85;;
51438;SDS011;38816;51.142;-0.974;2023-04-24T01:32:53;42.70;;;38.65;;
51438;SDS011;38816;51.142;-0.974;2023-04-24T01:35:20;44.38;;;40.13;;
51438;SDS011;38816;51.142;-0.974;2023-04-24T01:37:45;48.70;;;44.10;;
51438;SDS011;38816;51.142;-0.974;2023-04-24T01:40:11;48.15;;;43.67;;
51438;SDS011;38816;51.142;-0.974;2023-04-24T01:42:36;52.35;;;47.20;;
51438;SDS011;38816;51.142;-0.974;2023-04-24T01:45:02;48.17;;;43.67;;
51438;SDS011;38816;51.142;-0.974;2023-04-24T01:47:29;47.47;;;43.10;;
51438;SDS011;38816;51.142;-0.974;2023-04-24T01:49:55;45.95;;;41.72;;
51438;SDS011;38816;51.142;-0.974;2023-04-24T01:52:21;48.80;;;44.30;;
51438;SDS011;38816;51.142;-0.974;2023-04-24T01:54:46;49.17;;;44.33;;
51438;SDS011;38816;51.142;-0.974;2023-04-24T01:57:12;49.70;;;44.78;;
51438;SDS011;38816;51.142;-0.974;2023-04-24T01:59:39;51.03;;;45.90;;
51438;SDS011;38816;51.142;-0.974;2023-04-24T02:02:04;48.22;;;43.42;;
51438;SDS011;38816;51.142;-0.974;2023-04-24T02:04:29;49.40;;;44.47;;
51438;SDS011;38816;51.142;-0.974;2023-04-24T02:06:55;50.47;;;45.28;;
51438;SDS011;38816;51.142;-0.974;2023-04-24T02:09:20;50.60;;;45.28;;
51438;SDS011;38816;51.142;-0.974;2023-04-24T02:11:46;50.45;;;45.42;;
51438;SDS011;38816;51.142;-0.974;2023-04-24T02:14:11;49.65;;;44.88;;
51438;SDS011;38816;51.142;-0.974;2023-04-24T02:16:37;48.92;;;44.10;;
51438;SDS011;38816;51.142;-0.974;2023-04-24T02:19:02;50.85;;;45.65;;
51438;SDS011;38816;51.142;-0.974;2023-04-24T02:21:28;50.65;;;45.38;;
51438;SDS011;38816;51.142;-0.974;2023-04-24T02:23:55;50.17;;;45.33;;
51438;SDS011;38816;51.142;-0.974;2023-04-24T02:26:21;46.75;;;42.20;;
51438;SDS011;38816;51.142;-0.974;2023-04-24T02:28:46;52.47;;;47.15;;
51438;SDS011;38816;51.142;-0.974;2023-04-24T02:31:11;48.35;;;43.72;;
51438;SDS011;38816;51.142;-0.974;2023-04-24T02:33:37;47.72;;;43.38;;
51438;SDS011;38816;51.142;-0.974;2023-04-24T02:36:02;51.47;;;46.40;;
51438;SDS011;38816;51.142;-0.974;2023-04-24T02:38:28;49.65;;;44.85;;
51438;SDS011;38816;51.142;-0.974;2023-04-24T02:40:54;51.40;;;46.65;;
51438;SDS011;38816;51.142;-0.974;2023-04-24T02:43:19;52.25;;;47.25;;
51438;SDS011;38816;51.142;-0.974;2023-04-24T02:45:45;47.28;;;42.90;;
51438;SDS011;38816;51.142;-0.974;2023-04-24T02:48:10;52.55;;;47.47;;
51438;SDS011;38816;51.142;-0.974;2023-04-24T02:50:36;51.40;;;46.20;;
51438;SDS011;38816;51.142;-0.974;2023-04-24T02:53:01;55.33;;;49.80;;
51438;SDS011;38816;51.142;-0.974;2023-04-24T02:55:27;53.45;;;48.45;;
51438;SDS011;38816;51.142;-0.974;2023-04-24T02:57:52;53.85;;;48.90;;
51438;SDS011;38816;51.142;-0.974;2023-04-24T03:00:18;50.90;;;46.25;;
51438;SDS011;38816;51.142;-0.974;2023-04-24T03:02:43;54.28;;;48.83;;
51438;SDS011;38816;51.142;-0.974;2023-04-24T03:05:09;56.35;;;50.72;;
51438;SDS011;38816;51.142;-0.974;2023-04-24T03:07:36;55.22;;;49.65;;
51438;SDS011;38816;51.142;-0.974;2023-04-24T03:10:02;54.72;;;49.67;;
51438;SDS011;38816;51.142;-0.974;2023-04-24T03:12:28;54.08;;;49.17;;
51438;SDS011;38816;51.142;-0.974;2023-04-24T03:14:53;55.90;;;50.85;;
51438;SDS011;38816;51.142;-0.974;2023-04-24T03:17:19;53.58;;;48.67;;
51438;SDS011;38816;51.142;-0.974;2023-04-24T03:19:44;54.95;;;49.97;;
51438;SDS011;38816;51.142;-0.974;2023-04-24T03:22:09;56.03;;;50.92;;
51438;SDS011;38816;51.142;-0.974;2023-04-24T03:24:36;53.53;;;48.53;;
51438;SDS011;38816;51.142;-0.974;2023-04-24T03:27:01;53.28;;;48.33;;
51438;SDS011;38816;51.142;-0.974;2023-04-24T03:29:29;53.45;;;48.65;;
51438;SDS011;38816;51.142;-0.974;2023-04-24T03:31:55;51.55;;;46.88;;
51438;SDS011;38816;51.142;-0.974;2023-04-24T03:34:20;54.20;;;48.95;;
51438;SDS011;38816;51.142;-0.974;2023-04-24T03:36:45;50.50;;;45.90;;
51438;SDS011;38816;51.142;-0.974;2023-04-24T03:39:14;51.95;;;47.05;;
51438;SDS011;38816;51.142;-0.974;2023-04-24T03:41:39;51.92;;;47.00;;
51438;SDS011;38816;51.142;-0.974;2023-04-24T03:44:05;48.60;;;44.00;;
51438;SDS011;38816;51.142;-0.974;2023-04-24T03:46:30;52.67;;;47.47;;
51438;SDS011;38816;51.142;-0.974;2023-04-24T03:48:56;51.35;;;46.55;;
51438;SDS011;38816;51.142;-0.974;2023-04-24T03:51:21;46.95;;;42.75;;
51438;SDS011;38816;51.142;-0.974;2023-04-24T03:53:48;51.95;;;46.95;;
51438;SDS011;38816;51.142;-0.974;2023-04-24T03:56:14;53.47;;;48.33;;
51438;SDS011;38816;51.142;-0.974;2023-04-24T03:58:39;53.78;;;48.42;;
51438;SDS011;38816;51.142;-0.974;2023-04-24T04:04:07;51.65;;;46.55;;
51438;SDS011;38816;51.142;-0.974;2023-04-24T04:06:33;51.03;;;46.22;;
51438;SDS011;38816;51.142;-0.974;2023-04-24T04:08:58;50.50;;;45.90;;
51438;SDS011;38816;51.142;-0.974;2023-04-24T04:11:24;52.05;;;47.25;;
51438;SDS011;38816;51.142;-0.974;2023-04-24T04:13:50;51.65;;;46.55;;
51438;SDS011;38816;51.142;-0.974;2023-04-24T04:16:16;50.83;;;46.15;;
51438;SDS011;38816;51.142;-0.974;2023-04-24T04:18:44;52.10;;;47.17;;
51438;SDS011;38816;51.142;-0.974;2023-04-24T04:21:10;50.15;;;45.40;;
51438;SDS011;38816;51.142;-0.974;2023-04-24T04:23:36;51.33;;;46.58;;
51438;SDS011;38816;51.142;-0.974;2023-04-24T04:26:02;52.10;;;47.03;;
51438;SDS011;38816;51.142;-0.974;2023-04-24T04:28:28;52.58;;;47.63;;
51438;SDS011;38816;51.142;-0.974;2023-04-24T04:30:55;51.47;;;46.58;;
51438;SDS011;38816;51.142;-0.974;2023-04-24T04:33:22;53.28;;;47.95;;
51438;SDS011;38816;51.142;-0.974;2023-04-24T04:35:48;52.25;;;47.38;;
51438;SDS011;38816;51.142;-0.974;2023-04-24T04:38:14;51.78;;;47.03;;
51438;SDS011;38816;51.142;-0.974;2023-04-24T04:40:42;54.20;;;49.00;;
51438;SDS011;38816;51.142;-0.974;2023-04-24T04:43:07;51.38;;;46.58;;
51438;SDS011;38816;51.142;-0.974;2023-04-24T04:45:33;54.10;;;48.70;;
51438;SDS011;38816;51.142;-0.974;2023-04-24T04:47:59;53.50;;;47.92;;
51438;SDS011;38816;51.142;-0.974;2023-04-24T04:50:26;52.75;;;47.85;;
51438;SDS011;38816;51.142;-0.974;2023-04-24T04:52:52;55.42;;;50.10;;
51438;SDS011;38816;51.142;-0.974;2023-04-24T04:55:17;54.13;;;48.80;;
51438;SDS011;38816;51.142;-0.974;2023-04-24T04:57:44;53.03;;;48.03;;
51438;SDS011;38816;51.142;-0.974;2023-04-24T05:00:10;54.08;;;48.67;;
51438;SDS011;38816;51.142;-0.974;2023-04-24T05:02:36;51.78;;;46.92;;
51438;SDS011;38816;51.142;-0.974;2023-04-24T05:05:02;50.95;;;45.80;;
51438;SDS011;38816;51.142;-0.974;2023-04-24T05:07:28;50.60;;;45.75;;
51438;SDS011;38816;51.142;-0.974;2023-04-24T05:09:53;50.80;;;45.60;;
51438;SDS011;38816;51.142;-0.974;2023-04-24T05:12:18;49.58;;;44.60;;
51438;SDS011;38816;51.142;-0.974;2023-04-24T05:14:44;48.63;;;44.10;;
51438;SDS011;38816;51.142;-0.974;2023-04-24T05:17:09;49.13;;;44.30;;
51438;SDS011;38816;51.142;-0.974;2023-04-24T05:19:35;50.03;;;45.08;;
51438;SDS011;38816;51.142;-0.974;2023-04-24T05:22:03;51.53;;;46.15;;
51438;SDS011;38816;51.142;-0.974;2023-04-24T05:24:30;50.00;;;44.80;;
51438;SDS011;38816;51.142;-0.974;2023-04-24T05:26:56;51.58;;;46.35;;
51438;SDS011;38816;51.142;-0.974;2023-04-24T05:29:22;50.65;;;45.47;;
51438;SDS011;38816;51.142;-0.974;2023-04-24T05:31:47;51.25;;;46.30;;
51438;SDS011;38816;51.142;-0.974;2023-04-24T05:34:12;50.88;;;45.88;;
51438;SDS011;38816;51.142;-0.974;2023-04-24T05:36:39;51.42;;;46.40;;
51438;SDS011;38816;51.142;-0.974;2023-04-24T05:39:04;53.13;;;47.70;;
51438;SDS011;38816;51.142;-0.974;2023-04-24T05:41:30;54.42;;;48.83;;
51438;SDS011;38816;51.142;-0.974;2023-04-24T05:43:55;54.60;;;49.40;;
51438;SDS011;38816;51.142;-0.974;2023-04-24T05:46:20;54.00;;;48.55;;
51438;SDS011;38816;51.142;-0.974;2023-04-24T05:48:46;55.22;;;49.25;;
51438;SDS011;38816;51.142;-0.974;2023-04-24T05:51:12;58.60;;;52.75;;
51438;SDS011;38816;51.142;-0.974;2023-04-24T05:53:37;57.45;;;51.65;;
51438;SDS011;38816;51.142;-0.974;2023-04-24T05:56:06;57.67;;;52.30;;
51438;SDS011;38816;51.142;-0.974;2023-04-24T05:58:31;58.45;;;52.90;;
51438;SDS011;38816;51.142;-0.974;2023-04-24T06:00:57;60.80;;;54.85;;
51438;SDS011;38816;51.142;-0.974;2023-04-24T06:03:23;61.35;;;55.55;;
51438;SDS011;38816;51.142;-0.974;2023-04-24T06:05:50;61.72;;;56.05;;
51438;SDS011;38816;51.142;-0.974;2023-04-24T06:08:16;63.80;;;57.75;;
51438;SDS011;38816;51.142;-0.974;2023-04-24T06:10:41;64.00;;;57.78;;
51438;SDS011;38816;51.142;-0.974;2023-04-24T06:13:07;63.85;;;57.65;;
51438;SDS011;38816;51.142;-0.974;2023-04-24T06:15:32;67.55;;;60.90;;
51438;SDS011;38816;51.142;-0.974;2023-04-24T06:17:58;65.82;;;59.65;;
51438;SDS011;38816;51.142;-0.974;2023-04-24T06:20:24;67.53;;;61.30;;
51438;SDS011;38816;51.142;-0.974;2023-04-24T06:22:53;64.03;;;58.08;;
51438;SDS011;38816;51.142;-0.974;2023-04-24T06:25:18;69.38;;;63.10;;
51438;SDS011;38816;51.142;-0.974;2023-04-24T06:27:44;72.70;;;66.35;;
51438;SDS011;38816;51.142;-0.974;2023-04-24T06:30:10;74.28;;;67.68;;
51438;SDS011;38816;51.142;-0.974;2023-04-24T06:32:36;73.50;;;67.20;;
51438;SDS011;38816;51.142;-0.974;2023-04-24T06:35:01;73.85;;;67.35;;
51438;SDS011;38816;51.142;-0.974;2023-04-24T06:37:27;77.38;;;70.25;;
51438;SDS011;38816;51.142;-0.974;2023-04-24T06:39:52;78.85;;;71.75;;
51438;SDS011;38816;51.142;-0.974;2023-04-24T06:42:17;75.75;;;69.25;;
51438;SDS011;38816;51.142;-0.974;2023-04-24T06:44:45;77.30;;;70.40;;
51438;SDS011;38816;51.142;-0.974;2023-04-24T06:47:11;83.00;;;74.97;;
51438;SDS011;38816;51.142;-0.974;2023-04-24T06:49:38;79.40;;;72.68;;
51438;SDS011;38816;51.142;-0.974;2023-04-24T06:52:05;82.53;;;75.53;;
51438;SDS011;38816;51.142;-0.974;2023-04-24T06:54:31;86.30;;;79.28;;
51438;SDS011;38816;51.142;-0.974;2023-04-24T06:56:57;82.05;;;74.95;;
51438;SDS011;38816;51.142;-0.974;2023-04-24T06:59:23;81.13;;;74.20;;
51438;SDS011;38816;51.142;-0.974;2023-04-24T07:01:49;79.68;;;73.40;;
51438;SDS011;38816;51.142;-0.974;2023-04-24T07:04:16;87.05;;;79.95;;
51438;SDS011;38816;51.142;-0.974;2023-04-24T07:06:41;85.53;;;78.70;;
51438;SDS011;38816;51.142;-0.974;2023-04-24T07:09:07;87.28;;;80.22;;
51438;SDS011;38816;51.142;-0.974;2023-04-24T07:11:34;86.03;;;79.28;;
51438;SDS011;38816;51.142;-0.974;2023-04-24T07:14:00;84.13;;;77.30;;
51438;SDS011;38816;51.142;-0.974;2023-04-24T07:16:25;80.00;;;73.28;;
51438;SDS011;38816;51.142;-0.974;2023-04-24T07:18:51;72.03;;;66.32;;
51438;SDS011;38816;51.142;-0.974;2023-04-24T07:21:17;77.60;;;71.38;;
51438;SDS011;38816;51.142;-0.974;2023-04-24T07:23:42;79.05;;;72.75;;
51438;SDS011;38816;51.142;-0.974;2023-04-24T07:26:07;77.00;;;70.75;;
51438;SDS011;38816;51.142;-0.974;2023-04-24T07:28:33;78.40;;;72.40;;
51438;SDS011;38816;51.142;-0.974;2023-04-24T07:30:58;75.57;;;69.47;;
51438;SDS011;38816;51.142;-0.974;2023-04-24T07:33:25;72.32;;;66.32;;
51438;SDS011;38816;51.142;-0.974;2023-04-24T07:35:50;70.82;;;65.38;;
51438;SDS011;38816;51.142;-0.974;2023-04-24T07:38:16;69.35;;;63.67;;
51438;SDS011;38816;51.142;-0.974;2023-04-24T07:40:45;67.13;;;61.85;;
51438;SDS011;38816;51.142;-0.974;2023-04-24T07:43:10;58.40;;;54.00;;
51438;SDS011;38816;51.142;-0.974;2023-04-24T07:45:36;59.25;;;54.38;;
51438;SDS011;38816;51.142;-0.974;2023-04-24T07:48:02;59.53;;;54.72;;
51438;SDS011;38816;51.142;-0.974;2023-04-24T07:50:28;55.33;;;50.95;;
51438;SDS011;38816;51.142;-0.974;2023-04-24T07:52:53;54.67;;;50.08;;
51438;SDS011;38816;51.142;-0.974;2023-04-24T07:55:19;52.38;;;48.25;;
51438;SDS011;38816;51.142;-0.974;2023-04-24T07:57:44;48.75;;;44.80;;
51438;SDS011;38816;51.142;-0.974;2023-04-24T08:00:10;51.10;;;46.67;;
51438;SDS011;38816;51.142;-0.974;2023-04-24T08:02:36;47.35;;;43.42;;
51438;SDS011;38816;51.142;-0.974;2023-04-24T08:05:01;46.13;;;42.00;;
51438;SDS011;38816;51.142;-0.974;2023-04-24T08:07:28;40.00;;;36.60;;
51438;SDS011;38816;51.142;-0.974;2023-04-24T08:09:54;40.15;;;36.78;;
51438;SDS011;38816;51.142;-0.974;2023-04-24T08:12:19;34.95;;;31.63;;
51438;SDS011;38816;51.142;-0.974;2023-04-24T08:14:45;32.85;;;29.58;;
51438;SDS011;38816;51.142;-0.974;2023-04-24T08:17:10;30.55;;;28.02;;
51438;SDS011;38816;51.142;-0.974;2023-04-24T08:19:35;29.00;;;26.30;;
51438;SDS011;38816;51.142;-0.974;2023-04-24T08:22:01;27.67;;;25.05;;
51438;SDS011;38816;51.142;-0.974;2023-04-24T08:24:27;25.10;;;22.83;;
51438;SDS011;38816;51.142;-0.974;2023-04-24T08:26:52;21.67;;;19.48;;
51438;SDS011;38816;51.142;-0.974;2023-04-24T08:29:19;20.45;;;18.30;;
51438;SDS011;38816;51.142;-0.974;2023-04-24T08:31:44;19.98;;;17.73;;
51438;SDS011;38816;51.142;-0.974;2023-04-24T08:34:10;21.27;;;16.10;;
51438;SDS011;38816;51.142;-0.974;2023-04-24T08:36:36;16.75;;;15.15;;
51438;SDS011;38816;51.142;-0.974;2023-04-24T08:39:02;19.70;;;13.98;;
51438;SDS011;38816;51.142;-0.974;2023-04-24T08:41:27;13.80;;;12.40;;
51438;SDS011;38816;51.142;-0.974;2023-04-24T08:43:53;13.82;;;11.50;;
51438;SDS011;38816;51.142;-0.974;2023-04-24T08:46:20;12.85;;;11.60;;
51438;SDS011;38816;51.142;-0.974;2023-04-24T08:48:45;12.25;;;11.05;;
51438;SDS011;38816;51.142;-0.974;2023-04-24T08:51:11;13.70;;;10.85;;
51438;SDS011;38816;51.142;-0.974;2023-04-24T08:53:37;12.68;;;10.18;;
51438;SDS011;38816;51.142;-0.974;2023-04-24T08:56:03;10.40;;;9.23;;
51438;SDS011;38816;51.142;-0.974;2023-04-24T08:58:29;11.75;;;9.80;;
51438;SDS011;38816;51.142;-0.974;2023-04-24T09:00:55;11.35;;;9.38;;
51438;SDS011;38816;51.142;-0.974;2023-04-24T09:03:22;9.40;;;8.35;;
51438;SDS011;38816;51.142;-0.974;2023-04-24T09:05:48;10.60;;;8.32;;
51438;SDS011;38816;51.142;-0.974;2023-04-24T09:08:16;12.70;;;8.65;;
51438;SDS011;38816;51.142;-0.974;2023-04-24T09:10:43;12.57;;;8.65;;
51438;SDS011;38816;51.142;-0.974;2023-04-24T09:13:09;9.60;;;8.50;;
51438;SDS011;38816;51.142;-0.974;2023-04-24T09:15:35;13.70;;;8.38;;
51438;SDS011;38816;51.142;-0.974;2023-04-24T09:18:02;10.07;;;7.97;;
51438;SDS011;38816;51.142;-0.974;2023-04-24T09:20:27;8.30;;;6.97;;
51438;SDS011;38816;51.142;-0.974;2023-04-24T09:22:53;8.18;;;6.82;;
51438;SDS011;38816;51.142;-0.974;2023-04-24T09:25:20;8.85;;;6.72;;
51438;SDS011;38816;51.142;-0.974;2023-04-24T09:27:46;7.93;;;6.70;;
51438;SDS011;38816;51.142;-0.974;2023-04-24T09:30:15;7.53;;;6.03;;
51438;SDS011;38816;51.142;-0.974;2023-04-24T09:32:47;8.32;;;6.00;;
51438;SDS011;38816;51.142;-0.974;2023-04-24T09:35:13;9.43;;;5.93;;
51438;SDS011;38816;51.142;-0.974;2023-04-24T09:37:42;6.85;;;5.32;;
51438;SDS011;38816;51.142;-0.974;2023-04-24T09:42:38;10.10;;;5.50;;
51438;SDS011;38816;51.142;-0.974;2023-04-24T09:45:07;8.00;;;5.68;;
51438;SDS011;38816;51.142;-0.974;2023-04-24T09:47:38;10.20;;;5.43;;
51438;SDS011;38816;51.142;-0.974;2023-04-24T09:50:11;8.45;;;5.20;;
51438;SDS011;38816;51.142;-0.974;2023-04-24T09:52:47;6.90;;;5.47;;
51438;SDS011;38816;51.142;-0.974;2023-04-24T09:55:22;6.93;;;5.50;;
51438;SDS011;38816;51.142;-0.974;2023-04-24T09:57:50;8.48;;;5.03;;
51438;SDS011;38816;51.142;-0.974;2023-04-24T10:00:28;7.15;;;5.47;;
51438;SDS011;38816;51.142;-0.974;2023-04-24T10:05:31;7.72;;;5.50;;
51438;SDS011;38816;51.142;-0.974;2023-04-24T10:08:07;7.63;;;5.30;;
51438;SDS011;38816;51.142;-0.974;2023-04-24T10:10:35;7.97;;;5.13;;
51438;SDS011;38816;51.142;-0.974;2023-04-24T10:13:03;8.32;;;5.78;;
51438;SDS011;38816;51.142;-0.974;2023-04-24T10:15:29;7.90;;;5.43;;
51438;SDS011;38816;51.142;-0.974;2023-04-24T10:17:55;7.78;;;5.32;;
51438;SDS011;38816;51.142;-0.974;2023-04-24T10:20:24;6.75;;;5.60;;
51438;SDS011;38816;51.142;-0.974;2023-04-24T10:22:51;7.75;;;5.47;;
51438;SDS011;38816;51.142;-0.974;2023-04-24T10:25:23;8.02;;;5.50;;
51438;SDS011;38816;51.142;-0.974;2023-04-24T10:27:51;7.40;;;5.63;;
51438;SDS011;38816;51.142;-0.974;2023-04-24T10:30:18;8.18;;;5.18;;
51438;SDS011;38816;51.142;-0.974;2023-04-24T10:32:44;9.80;;;5.97;;
51438;SDS011;38816;51.142;-0.974;2023-04-24T10:35:11;5.88;;;5.28;;
51438;SDS011;38816;51.142;-0.974;2023-04-24T10:37:39;7.43;;;6.18;;
51438;SDS011;38816;51.142;-0.974;2023-04-24T10:40:09;10.85;;;5.78;;
51438;SDS011;38816;51.142;-0.974;2023-04-24T10:42:39;10.10;;;5.95;;
51438;SDS011;38816;51.142;-0.974;2023-04-24T10:45:06;8.18;;;5.95;;
51438;SDS011;38816;51.142;-0.974;2023-04-24T10:47:41;6.45;;;5.70;;
51438;SDS011;38816;51.142;-0.974;2023-04-24T10:50:08;6.45;;;5.68;;
51438;SDS011;38816;51.142;-0.974;2023-04-24T10:52:47;6.90;;;6.18;;
51438;SDS011;38816;51.142;-0.974;2023-04-24T10:55:16;7.65;;;6.85;;
51438;SDS011;38816;51.142;-0.974;2023-04-24T10:58:02;7.85;;;7.05;;
51438;SDS011;38816;51.142;-0.974;2023-04-24T11:00:30;11.35;;;7.75;;
51438;SDS011;38816;51.142;-0.974;2023-04-24T11:02:56;7.45;;;6.78;;
51438;SDS011;38816;51.142;-0.974;2023-04-24T11:05:22;9.85;;;7.30;;
51438;SDS011;38816;51.142;-0.974;2023-04-24T11:08:29;10.15;;;6.65;;
51438;SDS011;38816;51.142;-0.974;2023-04-24T11:11:03;10.77;;;7.13;;
51438;SDS011;38816;51.142;-0.974;2023-04-24T11:18:52;8.60;;;7.43;;
51438;SDS011;38816;51.142;-0.974;2023-04-24T11:21:25;8.13;;;7.22;;
51438;SDS011;38816;51.142;-0.974;2023-04-24T11:23:51;8.20;;;7.47;;
51438;SDS011;38816;51.142;-0.974;2023-04-24T11:26:25;8.80;;;7.97;;
51438;SDS011;38816;51.142;-0.974;2023-04-24T11:29:05;9.00;;;7.65;;
51438;SDS011;38816;51.142;-0.974;2023-04-24T11:31:36;8.43;;;7.68;;
51438;SDS011;38816;51.142;-0.974;2023-04-24T11:34:10;10.70;;;8.18;;
51438;SDS011;38816;51.142;-0.974;2023-04-24T11:36:38;9.65;;;8.75;;
51438;SDS011;38816;51.142;-0.974;2023-04-24T11:39:05;8.25;;;7.43;;
51438;SDS011;38816;51.142;-0.974;2023-04-24T11:41:31;10.43;;;8.07;;
51438;SDS011;38816;51.142;-0.974;2023-04-24T11:43:58;10.07;;;8.55;;
51438;SDS011;38816;51.142;-0.974;2023-04-24T11:46:27;8.75;;;7.95;;
51438;SDS011;38816;51.142;-0.974;2023-04-24T11:48:53;9.43;;;8.52;;
51438;SDS011;38816;51.142;-0.974;2023-04-24T11:51:19;10.50;;;8.60;;
51438;SDS011;38816;51.142;-0.974;2023-04-24T11:53:44;10.43;;;9.35;;
51438;SDS011;38816;51.142;-0.974;2023-04-24T11:56:10;9.40;;;7.75;;
51438;SDS011;38816;51.142;-0.974;2023-04-24T11:58:35;9.02;;;8.13;;
51438;SDS011;38816;51.142;-0.974;2023-04-24T12:01:01;9.80;;;8.85;;
51438;SDS011;38816;51.142;-0.974;2023-04-24T12:03:27;10.07;;;8.98;;
51438;SDS011;38816;51.142;-0.974;2023-04-24T12:05:52;9.48;;;8.57;;
51438;SDS011;38816;51.142;-0.974;2023-04-24T12:08:31;12.65;;;9.18;;
51438;SDS011;38816;51.142;-0.974;2023-04-24T12:10:57;9.52;;;8.63;;
51438;SDS011;38816;51.142;-0.974;2023-04-24T12:13:25;11.13;;;9.27;;
51438;SDS011;38816;51.142;-0.974;2023-04-24T12:15:50;10.73;;;9.63;;
51438;SDS011;38816;51.142;-0.974;2023-04-24T12:18:16;12.15;;;10.20;;
51438;SDS011;38816;51.142;-0.974;2023-04-24T12:20:44;10.48;;;9.48;;
51438;SDS011;38816;51.142;-0.974;2023-04-24T12:23:10;11.52;;;8.80;;
51438;SDS011;38816;51.142;-0.974;2023-04-24T12:25:35;10.93;;;7.85;;
51438;SDS011;38816;51.142;-0.974;2023-04-24T12:30:29;8.70;;;7.88;;
51438;SDS011;38816;51.142;-0.974;2023-04-24T12:32:57;7.75;;;6.78;;
51438;SDS011;38816;51.142;-0.974;2023-04-24T12:35:24;7.85;;;7.10;;
51438;SDS011;38816;51.142;-0.974;2023-04-24T12:37:51;7.65;;;6.90;;
51438;SDS011;38816;51.142;-0.974;2023-04-24T12:40:17;6.78;;;6.18;;
51438;SDS011;38816;51.142;-0.974;2023-04-24T12:42:50;5.95;;;5.47;;
51438;SDS011;38816;51.142;-0.974;2023-04-24T12:45:17;10.32;;;7.35;;
51438;SDS011;38816;51.142;-0.974;2023-04-24T12:47:44;8.18;;;7.30;;
51438;SDS011;38816;51.142;-0.974;2023-04-24T12:50:11;7.43;;;6.20;;
51438;SDS011;38816;51.142;-0.974;2023-04-24T12:52:38;7.03;;;5.88;;
51438;SDS011;38816;51.142;-0.974;2023-04-24T12:55:04;6.30;;;5.75;;
51438;SDS011;38816;51.142;-0.974;2023-04-24T12:57:33;6.72;;;6.13;;
51438;SDS011;38816;51.142;-0.974;2023-04-24T13:00:00;9.50;;;5.78;;
51438;SDS011;38816;51.142;-0.974;2023-04-24T13:02:26;5.35;;;4.85;;
51438;SDS011;38816;51.142;-0.974;2023-04-24T13:04:56;5.43;;;5.03;;
51438;SDS011;38816;51.142;-0.974;2023-04-24T13:07:23;5.10;;;4.60;;
51438;SDS011;38816;51.142;-0.974;2023-04-24T13:09:50;5.82;;;5.22;;
51438;SDS011;38816;51.142;-0.974;2023-04-24T13:12:16;5.93;;;5.18;;
51438;SDS011;38816;51.142;-0.974;2023-04-24T13:14:41;6.22;;;5.63;;
51438;SDS011;38816;51.142;-0.974;2023-04-24T13:17:07;6.15;;;5.43;;
51438;SDS011;38816;51.142;-0.974;2023-04-24T13:19:39;6.70;;;5.82;;
51438;SDS011;38816;51.142;-0.974;2023-04-24T13:22:06;10.07;;;5.45;;
51438;SDS011;38816;51.142;-0.974;2023-04-24T13:24:33;6.97;;;5.65;;
51438;SDS011;38816;51.142;-0.974;2023-04-24T13:26:59;7.47;;;5.63;;
51438;SDS011;38816;51.142;-0.974;2023-04-24T13:29:25;10.15;;;5.47;;
51438;SDS011;38816;51.142;-0.974;2023-04-24T13:31:51;7.65;;;5.85;;
51438;SDS011;38816;51.142;-0.974;2023-04-24T13:34:19;10.15;;;5.68;;
51438;SDS011;38816;51.142;-0.974;2023-04-24T13:36:44;7.07;;;5.13;;
51438;SDS011;38816;51.142;-0.974;2023-04-24T13:39:10;6.57;;;5.72;;
51438;SDS011;38816;51.142;-0.974;2023-04-24T13:41:35;6.25;;;5.65;;
51438;SDS011;38816;51.142;-0.974;2023-04-24T13:44:01;6.55;;;5.95;;
51438;SDS011;38816;51.142;-0.974;2023-04-24T13:46:28;9.25;;;7.03;;
51438;SDS011;38816;51.142;-0.974;2023-04-24T13:48:53;8.90;;;8.10;;
51438;SDS011;38816;51.142;-0.974;2023-04-24T13:51:19;12.20;;;11.15;;
51438;SDS011;38816;51.142;-0.974;2023-04-24T13:53:44;13.38;;;12.38;;
51438;SDS011;38816;51.142;-0.974;2023-04-24T13:56:09;12.43;;;11.43;;
51438;SDS011;38816;51.142;-0.974;2023-04-24T13:58:35;13.68;;;12.65;;
51438;SDS011;38816;51.142;-0.974;2023-04-24T14:01:02;13.80;;;12.57;;
51438;SDS011;38816;51.142;-0.974;2023-04-24T14:03:28;13.13;;;11.88;;
51438;SDS011;38816;51.142;-0.974;2023-04-24T14:05:53;12.90;;;11.90;;
51438;SDS011;38816;51.142;-0.974;2023-04-24T14:08:19;11.80;;;10.90;;
51438;SDS011;38816;51.142;-0.974;2023-04-24T14:10:44;11.45;;;10.63;;
51438;SDS011;38816;51.142;-0.974;2023-04-24T14:13:10;10.95;;;10.15;;
51438;SDS011;38816;51.142;-0.974;2023-04-24T14:15:36;12.20;;;11.05;;
51438;SDS011;38816;51.142;-0.974;2023-04-24T14:18:01;12.48;;;11.38;;
51438;SDS011;38816;51.142;-0.974;2023-04-24T14:20:28;12.68;;;11.60;;
51438;SDS011;38816;51.142;-0.974;2023-04-24T14:22:53;11.15;;;10.25;;
51438;SDS011;38816;51.142;-0.974;2023-04-24T14:25:19;11.40;;;10.00;;
51438;SDS011;38816;51.142;-0.974;2023-04-24T14:27:44;9.80;;;9.10;;